Baltimore, Maryland
Traffic Map
Current Weather Conditions
Baltimore, Maryland
Overcast
Overcast
12°
Feels Like: 12°
Wind Chill: 12° Ceiling: 25000
Heat Index: 12° Visibility: 10mi
Dew Point: -2° Wind: 5mph
Humidity: 37% Direction: 120° (ESE)
Pressure: 30.11in Gusts: 0mph
Raw Report DataKBWI 231954Z 12004KT 10SM FEW120 SCT200 OVC250 12/M02 A3011 RMK AO2 SLP195 T01221022
Traffic Incident Summary
Active as of:
Severity:
Category:
InformationThere was an issue retrieving the traffic information for this location. Please try a different location or try again shortly.
Advertisements
Track Severe Weather on mobile